Airfield :
LOGIN :

Register | Disclaimer

   EN    FR    IT 

 










Legend :    VFR   Marginal VFR   IFR   Intensive IFR   Very Intensive IFR
Visi :
Ceiling :
>= 8 km
>= 3000ft
5 to 8 km
1000 to 3000 ft
1500m to 5 km
500 to 1000 ft
800 to 1500m
200 to 500 ft
< 800m
< 200 ft
Symbols :   Thunderstorms  Fog  Heavy snow  Heavy precipitations  Wind > 20 kt
SIGMETs :     Misc.  Thunderstorms  Icing  Turbulence  Mountain Waves  Volcanic Ashes







- Airport Elevation : 1487 ft
- IATA code : MUC


EDDM - München Franz Josef Strauss

CURRENT METAR :
  • 221450Z 09005KT 050V110 7000 FEW004 OVC010 M03/M05 Q1007 NOSIG

EXPIRED METARs :
  • 221420Z 10004KT 7000 FEW005 OVC009 M03/M05 Q1007 BECMG SCT015
  • 221350Z 09006KT 7000 OVC009 M03/M05 Q1008 BECMG SCT015
  • 221320Z VRB03KT 7000 OVC009 M03/M05 Q1008 TEMPO OVC010
  • 221250Z 17004KT 110V210 7000 OVC008 M03/M05 Q1009 TEMPO OVC010
  • 221220Z 14005KT 070V220 7000 OVC008 M03/M05 Q1009 TEMPO OVC010
  • 221150Z 11005KT 070V150 6000 OVC007 M03/M05 Q1010 TEMPO OVC010

TAF TAF EDDM
Valid from the 22 at 12:00 until the 23 at 18:00 UTC


221100Z 2212/2318 12005KT 7000 OVC009
TEMPO 2213/2222 BKN013
BECMG 2222/2301 4000 BR
TEMPO 2302/2309 2000 BR BKN004
BECMG 2309/2312 8000 BKN012
BECMG 2312/2314 BKN015
PROB30
TEMPO 2312/2315 4000 -SN
No reported NOTAMs for that airfield.



MET'MAP, your aeronautical weather chart ! - Copyright ORBIFLY December 2007 - Disclaimer

ORBIFLY MET'MAP TEAM :

Programming & Development : Alexandra Zaïnal
Concept & Development : Baudouin d'Aumeries
Co-Development & Prog : Marc-Olivier Méhu
Technical & hardware support : Manuel Goepfert

Contact : metmap@orbifly.com




SOURCES & CREDITS :

   NOAA